Time;durP1;ratioP1;P1;durP2;ratioP2;P2;SDS_P1;SDS_P2;PMS_P1;PMS_P2;Temp;Humidity;BMP_temperature;BMP_pressure;BME280_temperature;BME280_humidity;BME280_pressure;Samples;Min_cycle;Max_cycle;Signal;HPM_P1;HPM_P2
2023/09/01 00:01:03;;;;;;;18.83;7.00;;;;;;;16.14;73.76;99466.84;4965866;28;20047;-47
2023/09/01 00:03:30;;;;;;;20.05;7.13;;;;;;;16.14;73.62;99464.25;4958842;28;20539;-49
2023/09/01 00:06:02;;;;;;;20.05;7.03;;;;;;;16.15;74.25;99466.75;4963500;28;20078;-48
2023/09/01 00:08:31;;;;;;;19.27;6.68;;;;;;;16.17;73.52;99461.50;4967129;28;20053;-46
2023/09/01 00:10:58;;;;;;;19.25;7.60;;;;;;;16.16;73.62;99459.78;4975157;28;20054;-47
2023/09/01 00:13:24;;;;;;;18.83;7.30;;;;;;;16.17;74.10;99462.34;4979953;28;20047;-46
2023/09/01 00:15:51;;;;;;;23.58;7.50;;;;;;;16.18;73.49;99458.00;4973735;28;20047;-48
2023/09/01 00:18:18;;;;;;;25.05;8.00;;;;;;;16.18;73.97;99458.81;4969098;28;20054;-48
2023/09/01 00:20:44;;;;;;;21.00;7.15;;;;;;;16.19;73.83;99457.91;4975606;28;20054;-47
2023/09/01 00:23:11;;;;;;;21.33;7.45;;;;;;;16.18;73.72;99464.06;4984115;28;20062;-51
2023/09/01 00:25:38;;;;;;;25.33;8.00;;;;;;;16.18;73.95;99458.81;4980524;28;20046;-47
2023/09/01 00:28:04;;;;;;;23.67;7.68;;;;;;;16.19;73.70;99457.91;4984643;28;20058;-48
2023/09/01 00:30:31;;;;;;;22.00;7.55;;;;;;;16.21;73.71;99454.41;4984542;28;20046;-47
2023/09/01 00:32:58;;;;;;;24.70;7.38;;;;;;;16.21;74.09;99452.63;4980976;28;20141;-49
2023/09/01 00:35:24;;;;;;;25.23;8.00;;;;;;;16.19;74.19;99457.91;4976854;28;20534;-46
2023/09/01 00:37:51;;;;;;;25.50;8.25;;;;;;;16.19;73.87;99457.91;4964412;28;20042;-45
2023/09/01 00:40:18;;;;;;;30.85;8.38;;;;;;;16.19;74.36;99463.13;4963434;28;20094;-47
2023/09/01 00:42:45;;;;;;;26.58;8.88;;;;;;;16.18;74.32;99458.00;4964604;28;20057;-48
2023/09/01 00:45:12;;;;;;;46.13;8.75;;;;;;;16.16;73.73;99452.81;4963166;28;20068;-46
2023/09/01 00:47:39;;;;;;;30.67;8.85;;;;;;;16.13;73.76;99455.53;4964707;28;20047;-46
2023/09/01 00:50:07;;;;;;;28.25;8.98;;;;;;;16.15;73.91;99451.09;4968799;28;20065;-47
2023/09/01 00:52:35;;;;;;;36.75;8.30;;;;;;;16.16;74.68;99457.19;4980914;28;20133;-46
2023/09/01 00:55:02;;;;;;;28.90;8.18;;;;;;;16.16;74.37;99458.03;4983128;28;20078;-49
2023/09/01 00:57:30;;;;;;;32.70;8.52;;;;;;;16.16;74.09;99458.03;4972432;28;20516;-45
2023/09/01 00:59:56;;;;;;;31.15;8.30;;;;;;;16.17;73.72;99454.50;4964308;28;20077;-47
2023/09/01 01:02:25;;;;;;;27.88;8.52;;;;;;;16.18;74.41;99456.22;4966287;28;20085;-45
2023/09/01 01:04:54;;;;;;;31.67;8.20;;;;;;;16.19;74.20;99452.69;4965009;28;20078;-46
2023/09/01 01:10:06;;;;;;;29.88;10.43;;;;;;;16.18;74.38;99453.59;5006864;27;20399;-46
2023/09/01 01:12:56;;;;;;;26.33;11.40;;;;;;;16.16;74.53;99452.81;5033533;28;20056;-48
2023/09/01 01:15:25;;;;;;;30.27;10.10;;;;;;;16.21;74.03;99455.25;5007034;28;20042;-47
2023/09/01 01:17:54;;;;;;;26.70;9.68;;;;;;;16.22;74.30;99454.38;5004001;28;20042;-46
2023/09/01 01:25:34;;;;;;;30.95;8.52;;;;;;;16.25;74.19;99453.41;5100359;27;20403;-47
2023/09/01 01:28:10;;;;;;;30.95;8.95;;;;;;;16.23;74.55;99452.59;5053468;28;20063;-48
2023/09/01 01:30:38;;;;;;;32.55;9.80;;;;;;;16.26;73.97;99452.47;5054523;28;20174;-49
2023/09/01 01:33:11;;;;;;;30.98;10.07;;;;;;;16.27;74.33;99448.94;5053157;28;20530;-48
2023/09/01 01:35:54;;;;;;;30.52;8.35;;;;;;;16.25;74.48;99446.38;5058176;28;20049;-44
2023/09/01 01:38:25;;;;;;;33.95;9.25;;;;;;;16.29;74.22;99452.38;5055470;28;20048;-48
2023/09/01 01:41:04;;;;;;;34.50;10.55;;;;;;;16.28;74.56;99435.00;5053269;28;20053;-45
2023/09/01 01:43:32;;;;;;;37.85;11.45;;;;;;;16.29;74.02;99436.69;5058504;28;20053;-45
2023/09/01 01:45:59;;;;;;;34.90;10.05;;;;;;;16.29;74.28;99439.31;5056063;28;20045;-49
2023/09/01 01:48:26;;;;;;;42.95;10.57;;;;;;;16.31;74.09;99443.56;5055840;28;20547;-46
2023/09/01 01:50:55;;;;;;;35.65;9.82;;;;;;;16.32;74.03;99437.41;5055699;28;20056;-46
2023/09/01 01:53:22;;;;;;;35.03;9.80;;;;;;;16.35;74.18;99440.84;5062223;28;20055;-45
2023/09/01 01:55:50;;;;;;;29.33;9.05;;;;;;;16.35;74.30;99436.44;5060241;28;20056;-46
2023/09/01 01:58:17;;;;;;;26.70;8.52;;;;;;;16.37;74.38;99445.09;5061986;28;20583;-46
2023/09/01 02:00:44;;;;;;;27.42;8.02;;;;;;;16.39;74.74;99440.69;5049380;28;20048;-45
2023/09/01 02:03:11;;;;;;;24.88;8.50;;;;;;;16.38;74.17;99441.56;5032765;28;20048;-47
2023/09/01 02:05:37;;;;;;;26.15;8.15;;;;;;;16.39;74.42;99443.31;5052409;28;20555;-44
2023/09/01 02:08:05;;;;;;;27.05;7.72;;;;;;;16.39;74.75;99443.31;5051488;28;20049;-49
2023/09/01 02:10:33;;;;;;;24.40;6.72;;;;;;;16.40;74.70;99438.91;5051788;28;20048;-51
2023/09/01 02:13:01;;;;;;;20.20;7.15;;;;;;;16.41;74.57;99436.25;5045179;28;20041;-47
2023/09/01 02:15:28;;;;;;;22.23;7.38;;;;;;;16.42;73.89;99440.56;5048074;28;20105;-49
2023/09/01 02:17:55;;;;;;;21.77;6.43;;;;;;;16.41;74.39;99438.84;5046533;28;20053;-47
2023/09/01 02:20:21;;;;;;;20.65;7.28;;;;;;;16.39;73.97;99432.84;5047942;28;20049;-46
2023/09/01 02:22:50;;;;;;;23.15;7.30;;;;;;;16.38;74.05;99436.34;5048313;28;20418;-45
2023/09/01 02:25:17;;;;;;;21.45;6.30;;;;;;;16.36;74.44;99440.78;5045948;28;20048;-46
2023/09/01 02:27:43;;;;;;;22.77;7.80;;;;;;;16.32;74.11;99442.66;5047025;28;20517;-44
2023/09/01 02:30:11;;;;;;;21.58;6.95;;;;;;;16.30;74.52;99443.63;5051874;28;20071;-45
2023/09/01 02:32:39;;;;;;;22.45;7.70;;;;;;;16.28;74.27;99445.44;5046925;28;20676;-48
2023/09/01 02:35:08;;;;;;;20.20;6.75;;;;;;;16.25;74.99;99445.56;5047547;28;20124;-45
2023/09/01 02:37:36;;;;;;;20.33;6.20;;;;;;;16.22;74.57;99435.22;5039044;28;20045;-45
2023/09/01 02:40:10;;;;;;;23.08;6.63;;;;;;;16.18;74.88;99440.53;5036850;28;20052;-46
2023/09/01 02:42:39;;;;;;;24.38;6.50;;;;;;;16.18;74.44;99445.75;5032143;28;20062;-48
2023/09/01 02:45:11;;;;;;;19.25;5.63;;;;;;;16.22;74.46;99435.22;5032093;28;20049;-46
2023/09/01 02:47:38;;;;;;;19.95;5.95;;;;;;;16.21;74.42;99438.75;5037270;28;20056;-49
2023/09/01 02:50:05;;;;;;;18.30;6.18;;;;;;;16.21;75.25;99443.97;5040727;28;20040;-46
2023/09/01 02:52:32;;;;;;;20.50;5.82;;;;;;;16.21;74.68;99433.50;5037289;28;20053;-44
2023/09/01 02:54:59;;;;;;;21.25;6.72;;;;;;;16.22;74.54;99436.06;5041421;28;20041;-46
2023/09/01 02:57:26;;;;;;;20.23;6.25;;;;;;;16.22;75.01;99435.22;5031773;28;20048;-45
2023/09/01 02:59:53;;;;;;;17.95;5.50;;;;;;;16.24;74.66;99443.88;5032018;28;20069;-46
2023/09/01 03:02:20;;;;;;;20.77;6.85;;;;;;;16.24;74.82;99438.63;5033844;28;20041;-47
2023/09/01 03:04:49;;;;;;;16.83;5.18;;;;;;;16.25;74.55;99429.88;5030158;28;20045;-49
2023/09/01 03:07:16;;;;;;;17.95;6.38;;;;;;;16.25;75.04;99438.56;5030510;28;20542;-46
2023/09/01 03:09:43;;;;;;;14.65;5.10;;;;;;;16.26;74.67;99439.41;5030282;28;20076;-47
2023/09/01 03:12:10;;;;;;;16.27;5.20;;;;;;;16.27;74.24;99447.19;5030239;28;20566;-45
2023/09/01 03:14:37;;;;;;;15.13;5.13;;;;;;;16.27;74.39;99444.59;5036737;28;20045;-46
2023/09/01 03:17:07;;;;;;;15.63;5.40;;;;;;;16.27;74.41;99448.94;5036561;28;20052;-49
2023/09/01 03:19:33;;;;;;;;;;;;;;;16.12;74.34;99451.22;5032970;28;20049;-46
2023/09/01 03:22:00;;;;;;;17.65;5.55;;;;;;;16.25;74.18;99456.00;5036492;28;19920;-48
2023/09/01 03:24:27;;;;;;;20.98;7.40;;;;;;;16.25;74.71;99453.41;5033682;28;20061;-47
2023/09/01 03:26:54;;;;;;;16.83;5.07;;;;;;;16.26;74.51;99457.72;5036435;28;20044;-49
2023/09/01 03:29:20;;;;;;;19.55;5.85;;;;;;;16.26;74.67;99455.09;5029579;28;20542;-46
2023/09/01 03:31:48;;;;;;;17.90;6.22;;;;;;;16.27;74.34;99455.03;5038637;28;20045;-48
2023/09/01 03:34:15;;;;;;;19.20;5.75;;;;;;;16.27;74.35;99454.19;5034188;28;20064;-46
2023/09/01 03:36:41;;;;;;;19.17;5.32;;;;;;;16.25;75.07;99451.63;5031769;28;20084;-46
2023/09/01 03:39:08;;;;;;;14.80;4.47;;;;;;;16.24;74.37;99459.53;5034409;28;20156;-46
2023/09/01 03:41:36;;;;;;;21.20;5.05;;;;;;;16.25;74.58;99459.44;5033187;28;20045;-45
2023/09/01 03:44:03;;;;;;;16.25;5.63;;;;;;;16.25;74.57;99453.41;5033996;28;20631;-48
2023/09/01 03:46:30;;;;;;;20.85;5.97;;;;;;;16.26;74.43;99442.03;5031980;28;20516;-48
2023/09/01 03:48:57;;;;;;;23.38;5.68;;;;;;;16.26;75.16;99439.41;5026429;28;20042;-49
2023/09/01 03:51:23;;;;;;;19.30;5.07;;;;;;;16.26;74.76;99442.88;5028002;28;20517;-45
2023/09/01 03:53:50;;;;;;;19.27;5.07;;;;;;;16.26;74.62;99452.47;5032075;28;20076;-47
2023/09/01 03:56:18;;;;;;;15.73;5.90;;;;;;;16.26;75.27;99457.72;5028550;28;20049;-46
2023/09/01 03:58:44;;;;;;;23.45;6.63;;;;;;;16.27;74.26;99443.72;5029814;28;20049;-48
2023/09/01 04:01:12;;;;;;;59.10;5.97;;;;;;;16.27;74.29;99449.81;5035472;28;20057;-47
2023/09/01 04:03:42;;;;;;;29.83;5.38;;;;;;;16.28;74.54;99445.44;5036741;28;20677;-47
2023/09/01 04:06:10;;;;;;;22.77;5.38;;;;;;;16.28;74.53;99442.84;5034171;28;20049;-47
2023/09/01 04:08:37;;;;;;;34.90;6.03;;;;;;;16.27;75.17;99444.59;5030386;28;20118;-47
2023/09/01 04:11:04;;;;;;;18.88;5.10;;;;;;;16.28;74.29;99445.44;5037197;28;20077;-48
2023/09/01 04:13:31;;;;;;;30.73;7.72;;;;;;;16.29;74.38;99455.00;5030761;28;20527;-47
2023/09/01 04:15:58;;;;;;;55.75;6.80;;;;;;;16.29;74.93;99441.91;5033637;28;20036;-50
2023/09/01 04:18:25;;;;;;;48.65;6.57;;;;;;;16.28;75.31;99451.50;5035133;28;20092;-48
2023/09/01 04:20:53;;;;;;;23.83;6.47;;;;;;;16.28;74.63;99446.28;5028350;28;20045;-49
2023/09/01 04:23:20;;;;;;;28.33;6.70;;;;;;;16.27;75.13;99441.97;5029498;28;20041;-46
2023/09/01 04:25:48;;;;;;;42.53;6.72;;;;;;;16.29;75.07;99447.16;5033356;28;20095;-46
2023/09/01 04:28:16;;;;;;;24.55;6.53;;;;;;;16.30;74.40;99443.63;5030118;28;20041;-47
2023/09/01 04:30:43;;;;;;;25.92;7.03;;;;;;;16.28;74.47;99441.06;5028652;28;20049;-46
2023/09/01 04:33:10;;;;;;;63.42;7.75;;;;;;;16.30;74.63;99443.63;5034388;28;20401;-48
2023/09/01 04:35:38;;;;;;;64.15;7.07;;;;;;;16.30;75.18;99441.00;5034596;28;20045;-47
2023/09/01 04:38:06;;;;;;;48.30;5.97;;;;;;;16.28;74.89;99442.84;5034716;28;20096;-50
2023/09/01 04:40:32;;;;;;;98.50;7.00;;;;;;;16.27;74.90;99441.13;5034718;28;20766;-51
2023/09/01 04:42:59;;;;;;;57.97;7.03;;;;;;;16.26;74.70;99437.66;5030619;28;20045;-51
2023/09/01 04:45:26;;;;;;;38.55;6.38;;;;;;;16.25;74.87;99440.31;5032388;28;20041;-47
2023/09/01 04:47:53;;;;;;;41.25;6.75;;;;;;;16.24;74.85;99443.88;5030884;28;20049;-46
2023/09/01 04:50:20;;;;;;;53.35;6.32;;;;;;;16.24;75.14;99443.88;5030635;28;20613;-47
2023/09/01 04:52:47;;;;;;;64.45;7.60;;;;;;;16.23;74.99;99442.13;5033064;28;20512;-50
2023/09/01 04:55:13;;;;;;;41.67;6.72;;;;;;;16.21;74.41;99449.19;5038183;28;20049;-51
2023/09/01 04:57:40;;;;;;;80.45;8.50;;;;;;;16.19;75.50;99451.84;5027928;28;20094;-47
2023/09/01 05:00:15;;;;;;;37.38;7.15;;;;;;;16.14;75.33;99452.00;5031176;28;20049;-49
2023/09/01 05:02:45;;;;;;;61.60;8.32;;;;;;;16.12;75.99;99451.22;5032113;28;20053;-44
2023/09/01 05:05:13;;;;;;;30.58;7.55;;;;;;;16.11;75.28;99459.94;5030885;28;20076;-46
2023/09/01 05:07:39;;;;;;;71.68;6.65;;;;;;;16.09;75.76;99461.78;5029084;28;20042;-47
2023/09/01 05:10:06;;;;;;;42.58;6.65;;;;;;;16.09;75.08;99461.78;5036093;28;20053;-45
2023/09/01 05:12:33;;;;;;;63.53;7.60;;;;;;;16.10;75.51;99463.47;5029707;28;20057;-46
2023/09/01 05:15:00;;;;;;;112.78;9.10;;;;;;;16.12;75.69;99460.81;5035043;28;20038;-47
2023/09/01 05:17:28;;;;;;;41.90;6.90;;;;;;;16.10;75.31;99458.25;5033497;28;20053;-44
2023/09/01 05:19:57;;;;;;;62.15;8.27;;;;;;;16.12;75.73;99461.69;5030851;28;20049;-46
2023/09/01 05:22:24;;;;;;;88.95;8.32;;;;;;;16.14;75.24;99465.06;5038768;28;20509;-46
2023/09/01 05:24:51;;;;;;;65.40;9.07;;;;;;;16.16;75.92;99476.34;5029109;28;20045;-47
2023/09/01 05:27:19;;;;;;;131.57;8.80;;;;;;;16.17;75.98;99474.56;5029955;28;20423;-50
2023/09/01 05:29:47;;;;;;;56.50;8.52;;;;;;;16.16;75.94;99470.25;5027204;28;20387;-49
2023/09/01 05:32:15;;;;;;;48.22;8.98;;;;;;;16.18;76.24;99469.28;5031682;28;20546;-49
2023/09/01 05:34:42;;;;;;;98.40;9.02;;;;;;;16.16;75.55;99473.72;5030334;28;20045;-48
2023/09/01 05:37:11;;;;;;;41.20;8.60;;;;;;;16.15;75.56;99466.75;5040535;28;20048;-46
2023/09/01 05:39:39;;;;;;;41.95;8.45;;;;;;;16.16;76.07;99468.50;5034498;28;20049;-47
2023/09/01 05:42:08;;;;;;;44.03;8.55;;;;;;;16.17;75.44;99472.81;5028918;28;20049;-46
2023/09/01 05:44:36;;;;;;;59.42;8.10;;;;;;;16.19;75.97;99473.59;5037390;28;20041;-45
2023/09/01 05:47:03;;;;;;;99.70;9.60;;;;;;;16.20;75.78;99469.22;5016568;28;20045;-47
2023/09/01 05:49:31;;;;;;;111.10;9.73;;;;;;;16.21;76.35;99470.09;5027785;28;20049;-45
2023/09/01 05:51:59;;;;;;;44.08;7.65;;;;;;;16.21;75.94;99472.69;5027675;28;20045;-46
2023/09/01 05:54:26;;;;;;;64.28;8.10;;;;;;;16.22;76.01;99477.88;5032037;28;20095;-47
2023/09/01 05:56:53;;;;;;;131.43;11.63;;;;;;;16.19;76.12;99477.97;5031085;28;20068;-47
2023/09/01 05:59:20;;;;;;;106.78;9.65;;;;;;;16.19;76.12;99483.22;5031193;28;20565;-50
2023/09/01 06:01:46;;;;;;;81.93;7.40;;;;;;;16.16;76.03;99489.41;5026925;28;20053;-48
2023/09/01 06:04:13;;;;;;;41.72;7.38;;;;;;;16.17;76.45;99485.88;5033166;28;20057;-49
2023/09/01 06:06:40;;;;;;;65.65;7.10;;;;;;;16.18;76.00;99495.41;5029772;28;20262;-48
2023/09/01 06:09:08;;;;;;;51.13;7.25;;;;;;;16.17;76.15;99483.25;5030548;28;20107;-47
2023/09/01 06:11:37;;;;;;;37.88;7.75;;;;;;;16.18;76.65;99484.94;5035779;28;20056;-46
2023/09/01 06:14:04;;;;;;;43.10;8.43;;;;;;;16.19;76.42;99486.66;5038641;28;20785;-49
2023/09/01 06:16:30;;;;;;;49.55;9.10;;;;;;;16.21;75.78;99485.75;5037099;28;20434;-45
2023/09/01 06:19:00;;;;;;;40.95;7.90;;;;;;;16.23;76.00;99494.38;5037590;28;20064;-45
2023/09/01 06:21:27;;;;;;;25.65;7.78;;;;;;;16.23;76.17;99494.38;5034953;28;20055;-47
2023/09/01 06:23:54;;;;;;;73.80;8.20;;;;;;;16.25;76.37;99495.19;5034802;28;20115;-49
2023/09/01 06:26:21;;;;;;;83.47;9.38;;;;;;;16.27;75.76;99495.97;5032472;28;20148;-47
2023/09/01 06:28:48;;;;;;;30.88;6.82;;;;;;;16.27;75.59;99498.59;5035016;28;20066;-45
2023/09/01 06:31:16;;;;;;;23.30;5.95;;;;;;;16.28;75.97;99492.50;5037420;28;20057;-46
2023/09/01 06:33:44;;;;;;;19.17;5.97;;;;;;;16.27;75.44;99486.41;5031964;28;20060;-47
2023/09/01 06:36:13;;;;;;;24.60;6.70;;;;;;;16.26;75.82;99495.16;5036585;28;20114;-46
2023/09/01 06:38:41;;;;;;;17.10;4.97;;;;;;;16.27;76.34;99499.47;5039366;28;20052;-47
2023/09/01 06:41:08;;;;;;;20.70;5.65;;;;;;;16.27;75.82;99501.22;5039702;28;20050;-49
2023/09/01 06:43:36;;;;;;;21.00;6.07;;;;;;;16.30;76.26;99507.19;5031674;28;20383;-46
2023/09/01 06:46:02;;;;;;;16.20;5.35;;;;;;;16.32;76.25;99509.75;5031597;28;20050;-45
2023/09/01 06:48:30;;;;;;;17.58;5.20;;;;;;;16.28;76.64;99518.63;5038782;28;20588;-47
2023/09/01 06:51:00;;;;;;;17.55;5.70;;;;;;;16.29;76.75;99515.09;5027473;28;20559;-48
2023/09/01 06:53:27;;;;;;;19.80;5.78;;;;;;;16.26;76.46;99521.28;5037446;28;20074;-48
2023/09/01 06:55:53;;;;;;;15.88;4.57;;;;;;;16.25;76.20;99526.56;5032336;28;20055;-49
2023/09/01 06:58:20;;;;;;;15.18;4.60;;;;;;;16.28;77.04;99529.91;5035670;28;20569;-48
2023/09/01 07:00:47;;;;;;;16.83;5.07;;;;;;;16.32;76.59;99525.44;5029025;28;20528;-47
2023/09/01 07:03:14;;;;;;;18.85;5.13;;;;;;;16.37;76.69;99525.25;5034270;28;20053;-48
2023/09/01 07:05:40;;;;;;;15.45;5.55;;;;;;;16.39;76.45;99532.16;5032068;28;20102;-46
2023/09/01 07:08:13;;;;;;;18.05;5.68;;;;;;;16.41;76.11;99534.69;5028356;28;20048;-48
2023/09/01 07:10:40;;;;;;;17.80;5.20;;;;;;;16.42;76.56;99532.03;5029849;28;20758;-47
2023/09/01 07:13:10;;;;;;;19.70;5.57;;;;;;;16.45;76.63;99531.91;5031099;28;20056;-45
2023/09/01 07:15:36;;;;;;;21.95;5.22;;;;;;;16.49;76.36;99526.59;5033469;28;20049;-47
2023/09/01 07:18:04;;;;;;;17.77;6.03;;;;;;;16.49;76.51;99534.44;5039509;28;20556;-46
2023/09/01 07:20:30;;;;;;;19.55;5.93;;;;;;;16.49;76.60;99547.50;5032934;28;20046;-50
2023/09/01 07:22:57;;;;;;;22.52;6.20;;;;;;;16.50;76.33;99543.97;5036195;28;20048;-47
2023/09/01 07:25:24;;;;;;;24.42;7.30;;;;;;;16.50;76.07;99543.97;5036543;28;20279;-46
2023/09/01 07:27:51;;;;;;;24.73;6.40;;;;;;;16.47;76.31;99541.47;5031292;28;20052;-47
2023/09/01 07:30:17;;;;;;;20.83;6.30;;;;;;;16.47;76.73;99539.72;5031103;28;20057;-49
2023/09/01 07:32:44;;;;;;;21.02;5.25;;;;;;;16.50;76.13;99543.97;5031756;28;20049;-47
2023/09/01 07:35:11;;;;;;;19.85;6.30;;;;;;;16.48;76.44;99540.56;5029378;28;20469;-46
2023/09/01 07:37:38;;;;;;;17.40;5.57;;;;;;;16.49;76.33;99547.50;5031856;28;20053;-48
2023/09/01 07:40:05;;;;;;;17.83;5.15;;;;;;;16.51;76.69;99556.16;5033865;28;20079;-46
2023/09/01 07:42:33;;;;;;;14.90;3.97;;;;;;;16.55;76.26;99552.53;5033669;28;20061;-47
2023/09/01 07:45:00;;;;;;;12.70;4.38;;;;;;;16.58;76.96;99555.88;5035994;28;20046;-48
2023/09/01 07:47:27;;;;;;;12.80;4.03;;;;;;;16.62;76.96;99558.38;5031998;28;20049;-46
2023/09/01 07:49:53;;;;;;;15.40;4.93;;;;;;;16.66;76.45;99563.44;5033116;28;20149;-45
2023/09/01 07:52:20;;;;;;;16.05;4.45;;;;;;;16.73;76.19;99568.44;5027442;28;20057;-46
2023/09/01 07:54:47;;;;;;;14.00;4.30;;;;;;;16.77;75.99;99572.66;5028312;28;20057;-49
2023/09/01 07:57:14;;;;;;;13.13;4.15;;;;;;;16.85;75.84;99581.06;5030982;28;20049;-50
2023/09/01 07:59:41;;;;;;;12.35;3.83;;;;;;;16.91;76.03;99580.84;5032323;28;20045;-48
2023/09/01 08:02:08;;;;;;;10.95;3.67;;;;;;;16.96;76.43;99584.16;5031826;28;20136;-48
2023/09/01 08:04:38;;;;;;;9.85;3.88;;;;;;;17.02;76.24;99587.47;5029376;28;20057;-50
2023/09/01 08:07:05;;;;;;;10.88;3.42;;;;;;;17.06;75.98;99589.09;5031535;28;20053;-47
2023/09/01 08:09:33;;;;;;;9.60;3.63;;;;;;;17.12;75.81;99591.47;5031436;28;20071;-46
2023/09/01 08:12:00;;;;;;;8.82;3.13;;;;;;;17.13;75.92;99590.56;5029911;28;20052;-47
2023/09/01 08:14:26;;;;;;;11.30;3.90;;;;;;;17.18;75.92;99606.94;5028799;28;20053;-51
2023/09/01 08:16:53;;;;;;;6.70;3.17;;;;;;;17.20;75.97;99599.88;5027476;28;20154;-51
2023/09/01 08:19:20;;;;;;;7.80;3.03;;;;;;;17.19;75.35;99598.16;5033042;28;20406;-50
2023/09/01 08:21:48;;;;;;;5.95;3.13;;;;;;;17.20;75.32;99607.72;5035925;28;20498;-47
2023/09/01 08:24:14;;;;;;;8.68;3.78;;;;;;;17.23;76.24;99605.91;5032054;28;20048;-46
2023/09/01 08:26:41;;;;;;;8.73;3.97;;;;;;;17.25;75.93;99614.56;5028605;28;20049;-47
2023/09/01 08:29:08;;;;;;;8.45;3.50;;;;;;;17.28;75.92;99604.81;5031998;28;20055;-48
2023/09/01 08:31:34;;;;;;;5.93;2.65;;;;;;;17.32;75.42;99605.56;5031095;28;20061;-49
2023/09/01 08:34:02;;;;;;;7.13;2.45;;;;;;;17.34;75.41;99614.22;5030399;28;20091;-47
2023/09/01 08:36:29;;;;;;;6.13;2.67;;;;;;;17.35;75.81;99621.16;5036182;28;20045;-47
2023/09/01 08:38:55;;;;;;;6.82;2.47;;;;;;;17.38;75.41;99623.66;5038233;28;20045;-46
2023/09/01 08:41:23;;;;;;;5.55;2.35;;;;;;;17.40;75.46;99629.69;5035459;28;20049;-45
2023/09/01 08:43:53;;;;;;;7.55;2.58;;;;;;;17.42;75.78;99622.63;5033515;28;20057;-47
2023/09/01 08:46:21;;;;;;;;;;;;;;;17.29;76.11;99621.41;5040091;28;20049;-45
2023/09/01 08:48:48;;;;;;;5.85;2.63;;;;;;;17.39;75.09;99627.13;5028317;28;20048;-49
2023/09/01 08:51:14;;;;;;;4.88;1.90;;;;;;;17.45;75.63;99630.38;5035333;28;20053;-48
2023/09/01 08:53:42;;;;;;;5.05;2.40;;;;;;;17.44;75.06;99636.53;5039959;28;20049;-46
2023/09/01 08:56:09;;;;;;;7.25;1.73;;;;;;;17.49;75.21;99635.50;5032494;28;20047;-48
2023/09/01 08:58:37;;;;;;;5.32;2.17;;;;;;;17.56;75.23;99639.59;5028916;28;20495;-46
2023/09/01 09:01:03;;;;;;;5.57;2.40;;;;;;;17.62;75.00;99636.72;5036191;28;20049;-50
2023/09/01 09:03:32;;;;;;;4.50;2.25;;;;;;;17.70;75.62;99639.88;5031750;28;20053;-51
2023/09/01 09:06:02;;;;;;;6.45;2.83;;;;;;;17.78;74.83;99644.84;5033719;28;20597;-49
2023/09/01 09:08:29;;;;;;;6.38;2.80;;;;;;;17.85;75.22;99645.44;5034946;28;20068;-48
2023/09/01 09:10:56;;;;;;;7.63;2.65;;;;;;;17.92;74.62;99646.91;5030184;28;20048;-49
2023/09/01 09:18:46;;;;;;;6.50;3.45;;;;;;;18.11;74.13;99656.69;5020938;27;20765;-47
2023/09/01 09:21:31;;;;;;;5.80;2.42;;;;;;;18.08;74.37;99657.63;5003297;28;20050;-51
2023/09/01 09:24:00;;;;;;;5.18;2.17;;;;;;;18.20;74.47;99661.53;4997534;28;20089;-47
2023/09/01 09:26:46;;;;;;;5.53;2.20;;;;;;;18.29;74.52;99667.31;4998713;28;20046;-51
2023/09/01 09:29:15;;;;;;;5.32;2.13;;;;;;;18.43;74.25;99670.22;4996431;28;20132;-49
2023/09/01 09:31:44;;;;;;;3.88;1.65;;;;;;;18.59;74.55;99674.81;4999230;28;20050;-48
2023/09/01 09:34:15;;;;;;;4.10;1.80;;;;;;;18.70;74.13;99675.22;4995639;28;20055;-46
2023/09/01 09:36:43;;;;;;;4.35;2.10;;;;;;;18.73;73.61;99682.97;4999549;28;20045;-46
2023/09/01 09:39:27;;;;;;;5.50;2.50;;;;;;;18.71;73.19;99678.72;4994524;28;20057;-46
2023/09/01 09:41:56;;;;;;;4.60;1.67;;;;;;;18.79;73.21;99678.38;4997193;28;20046;-46
2023/09/01 09:44:31;;;;;;;5.50;2.47;;;;;;;18.87;73.23;99676.25;4996656;28;20049;-50
2023/09/01 09:46:58;;;;;;;5.53;2.45;;;;;;;18.95;73.03;99676.78;4996016;28;20053;-46
2023/09/01 09:49:25;;;;;;;4.68;1.73;;;;;;;19.05;73.03;99684.25;4997245;28;20050;-49
2023/09/01 09:51:53;;;;;;;3.78;1.80;;;;;;;19.11;72.63;99684.88;4994041;28;20688;-46
2023/09/01 09:54:21;;;;;;;4.60;1.92;;;;;;;19.23;72.39;99685.25;4998683;28;20085;-47
2023/09/01 09:56:50;;;;;;;5.35;2.42;;;;;;;19.31;72.67;99684.88;4997383;28;20044;-46
2023/09/01 09:59:25;;;;;;;5.60;2.75;;;;;;;19.39;72.52;99683.63;4990491;28;20058;-48
2023/09/01 10:01:54;;;;;;;5.57;3.00;;;;;;;19.48;71.98;99686.75;4989257;28;20058;-45
2023/09/01 10:04:23;;;;;;;7.07;3.28;;;;;;;19.58;71.74;99687.16;4990569;28;20188;-50
2023/09/01 10:06:50;;;;;;;6.15;3.47;;;;;;;19.70;71.97;99686.63;4990074;28;20049;-50
2023/09/01 10:09:18;;;;;;;5.28;2.55;;;;;;;19.87;72.21;99683.22;4984972;28;20081;-46
2023/09/01 10:11:46;;;;;;;6.97;3.15;;;;;;;20.02;70.90;99686.91;4990570;28;20052;-47
2023/09/01 10:14:14;;;;;;;6.25;3.55;;;;;;;20.13;70.36;99701.31;4989265;28;20410;-47
2023/09/01 10:16:43;;;;;;;5.72;2.97;;;;;;;20.24;70.88;99701.66;4987800;28;20158;-51
2023/09/01 10:19:12;;;;;;;4.88;2.33;;;;;;;20.32;70.32;99708.28;4989092;28;20068;-52
2023/09/01 10:21:41;;;;;;;;;;;;;;;20.29;70.26;99707.53;4986633;28;20042;-49
2023/09/01 10:24:15;;;;;;;5.20;2.22;;;;;;;20.43;69.70;99700.72;4989092;28;19926;-50
2023/09/01 10:26:43;;;;;;;4.35;2.10;;;;;;;20.55;69.90;99700.13;4991265;28;20478;-51
2023/09/01 10:29:12;;;;;;;4.00;2.30;;;;;;;20.65;69.13;99699.66;4984056;28;20050;-48
2023/09/01 10:31:42;;;;;;;4.45;2.63;;;;;;;20.74;69.20;99706.22;4976702;28;20152;-47
2023/09/01 10:34:16;;;;;;;4.30;2.05;;;;;;;20.76;68.76;99702.59;4975371;28;20660;-47
2023/09/01 10:36:45;;;;;;;4.85;3.28;;;;;;;20.89;68.83;99696.72;4983447;28;20683;-48
2023/09/01 10:39:22;;;;;;;4.25;2.33;;;;;;;21.03;68.27;99693.38;4967612;28;20053;-48
2023/09/01 10:50:12;;;;;;;3.85;2.20;;;;;;;21.62;67.04;99700.81;5063156;27;20399;-50
2023/09/01 10:52:42;;;;;;;4.00;1.70;;;;;;;21.73;66.97;99697.56;5033334;28;20514;-48
2023/09/01 10:55:09;;;;;;;2.88;1.73;;;;;;;21.86;65.54;99700.41;5036705;28;20056;-50
2023/09/01 11:00:34;;;;;;;7.00;2.10;;;;;;;22.03;64.22;99709.16;5020321;28;20396;-51
2023/09/01 11:03:30;;;;;;;2.47;1.33;;;;;;;22.05;64.18;99705.50;5013241;28;20362;-49
2023/09/01 11:06:01;;;;;;;2.53;1.10;;;;;;;22.10;63.69;99705.25;5009346;28;20055;-50
2023/09/01 11:08:30;;;;;;;4.25;2.40;;;;;;;22.20;63.90;99710.84;5018871;28;20046;-52
2023/09/01 11:11:13;;;;;;;2.63;1.20;;;;;;;22.23;64.03;99710.66;5006928;28;20045;-51
2023/09/01 11:13:42;;;;;;;2.28;1.35;;;;;;;22.32;63.85;99710.13;4991732;28;20062;-51
2023/09/01 11:16:11;;;;;;;2.53;1.75;;;;;;;22.37;63.10;99717.78;5011115;28;24026;-48
2023/09/01 11:18:38;;;;;;;2.55;1.60;;;;;;;22.42;63.22;99720.13;4997902;28;20083;-52
2023/09/01 11:21:08;;;;;;;2.45;1.02;;;;;;;22.50;63.82;99717.94;5008893;28;20092;-50
2023/09/01 11:23:35;;;;;;;3.20;1.88;;;;;;;22.60;63.04;99719.09;5007875;28;20050;-51
2023/09/01 11:26:03;;;;;;;4.07;1.40;;;;;;;22.65;62.49;99725.91;5000346;28;20054;-51
2023/09/01 11:28:30;;;;;;;3.20;1.60;;;;;;;22.71;62.99;99722.91;5009731;28;20064;-51
2023/09/01 11:31:03;;;;;;;2.88;1.50;;;;;;;22.77;62.01;99725.19;5008030;28;20046;-53
2023/09/01 11:33:36;;;;;;;2.65;1.73;;;;;;;22.82;61.84;99725.78;4998779;28;20061;-48
2023/09/01 11:36:10;;;;;;;2.72;1.60;;;;;;;22.92;60.95;99725.22;5012333;28;20590;-51
2023/09/01 11:38:37;;;;;;;3.08;1.52;;;;;;;23.01;61.54;99732.59;5009673;28;20076;-52
2023/09/01 11:41:08;;;;;;;2.38;1.73;;;;;;;23.13;61.70;99730.16;5004355;28;20069;-53
2023/09/01 11:43:36;;;;;;;3.20;1.50;;;;;;;23.23;60.86;99723.34;5007492;28;20052;-49
2023/09/01 11:46:03;;;;;;;2.30;1.15;;;;;;;23.28;61.22;99723.94;5016060;28;20045;-52
2023/09/01 11:48:30;;;;;;;2.55;1.38;;;;;;;23.33;60.69;99727.13;5011151;28;20045;-49
2023/09/01 11:50:58;;;;;;;2.20;1.10;;;;;;;23.39;60.53;99735.66;5010544;28;20144;-50
2023/09/01 11:53:30;;;;;;;2.20;1.83;;;;;;;23.36;60.26;99737.56;5012968;28;20050;-47
2023/09/01 11:55:59;;;;;;;1.83;1.20;;;;;;;23.35;60.42;99735.88;5016351;28;20137;-50
2023/09/01 12:06:24;;;;;;;3.17;1.10;;;;;;;23.70;59.80;99729.31;5018171;27;20413;-49